createdAt,value
2022-09-05T00:01:47.187Z,9.18
2022-09-05T00:04:25.100Z,9.20
2022-09-05T00:07:00.441Z,8.85
2022-09-05T00:09:52.055Z,8.63
2022-09-05T00:12:20.586Z,7.88
2022-09-05T00:15:16.274Z,7.43
2022-09-05T00:20:01.645Z,7.43
2022-09-05T00:24:32.277Z,7.00
2022-09-05T00:24:32.631Z,6.78
2022-09-05T00:26:53.736Z,6.55
2022-09-05T00:31:05.480Z,6.78
2022-09-05T00:32:42.298Z,6.60
2022-09-05T00:35:26.813Z,5.90
2022-09-05T00:37:56.919Z,5.90
2022-09-05T00:40:31.472Z,5.93
2022-09-05T00:43:03.325Z,5.60
2022-09-05T00:45:37.119Z,5.30
2022-09-05T00:48:21.043Z,5.23
2022-09-05T00:51:03.742Z,5.22
2022-09-05T00:53:42.882Z,6.00
2022-09-05T00:56:27.055Z,5.60
2022-09-05T00:59:28.825Z,5.35
2022-09-05T01:02:01.013Z,4.93
2022-09-05T01:04:39.602Z,4.90
2022-09-05T01:07:27.247Z,5.00
2022-09-05T01:10:08.814Z,4.80
2022-09-05T01:12:53.141Z,5.15
2022-09-05T01:15:28.635Z,5.30
2022-09-05T01:18:16.578Z,5.32
2022-09-05T01:21:20.259Z,5.37
2022-09-05T01:24:04.275Z,5.22
2022-09-05T01:27:06.226Z,5.35
2022-09-05T01:29:48.736Z,5.22
2022-09-05T01:32:28.238Z,4.60
2022-09-05T01:35:02.434Z,5.00
2022-09-05T01:37:38.345Z,4.72
2022-09-05T01:40:19.504Z,4.65
2022-09-05T01:43:05.570Z,4.68
2022-09-05T01:45:49.310Z,4.50
2022-09-05T01:48:30.592Z,4.68
2022-09-05T01:51:29.236Z,4.57
2022-09-05T01:54:23.684Z,4.53
2022-09-05T01:57:07.749Z,4.70
2022-09-05T01:59:46.150Z,4.03
2022-09-05T02:02:35.227Z,4.07
2022-09-05T02:05:48.534Z,4.30
2022-09-05T02:08:30.867Z,4.30
2022-09-05T02:11:05.228Z,4.35
2022-09-05T02:13:56.046Z,4.70
2022-09-05T02:16:32.225Z,4.30
2022-09-05T02:19:10.596Z,3.95
2022-09-05T02:21:57.003Z,4.50
2022-09-05T02:24:28.722Z,4.00
2022-09-05T02:27:53.504Z,4.93
2022-09-05T02:30:14.166Z,4.13
2022-09-05T02:33:05.898Z,4.22
2022-09-05T02:35:49.203Z,4.13
2022-09-05T02:40:21.930Z,4.30
2022-09-05T02:45:20.072Z,4.27
2022-09-05T02:45:20.116Z,4.20
2022-09-05T02:47:13.834Z,4.20
2022-09-05T02:50:44.669Z,4.32
2022-09-05T02:57:28.164Z,4.00
2022-09-05T02:57:34.202Z,4.25
2022-09-05T02:59:06.061Z,4.45
2022-09-05T03:01:56.926Z,3.90
2022-09-05T03:04:33.670Z,4.28
2022-09-05T03:07:31.983Z,4.75
2022-09-05T03:10:39.635Z,4.50
2022-09-05T03:13:54.226Z,4.70
2022-09-05T03:17:14.217Z,4.53
2022-09-05T03:20:18.025Z,4.57
2022-09-05T03:23:28.154Z,4.45
2022-09-05T03:26:35.759Z,4.35
2022-09-05T03:29:43.886Z,4.28
2022-09-05T03:32:33.522Z,4.20
2022-09-05T03:35:34.847Z,4.20
2022-09-05T03:38:33.922Z,4.10
2022-09-05T03:41:39.975Z,4.05
2022-09-05T03:44:30.422Z,4.00
2022-09-05T03:47:17.166Z,4.32
2022-09-05T03:53:29.372Z,3.70
2022-09-05T03:57:16.806Z,4.13
2022-09-05T03:57:24.261Z,4.40
2022-09-05T03:59:21.886Z,4.18
2022-09-05T04:04:28.868Z,4.50
2022-09-05T04:08:17.690Z,4.03
2022-09-05T04:08:27.683Z,4.18
2022-09-05T04:10:36.650Z,3.92
2022-09-05T04:13:09.539Z,4.30
2022-09-05T04:15:43.336Z,4.18
2022-09-05T04:18:25.699Z,4.68
2022-09-05T04:21:04.638Z,4.30
2022-09-05T04:23:42.890Z,4.30
2022-09-05T04:26:23.562Z,3.92
2022-09-05T04:29:03.672Z,3.75
2022-09-05T04:31:44.113Z,3.60
2022-09-05T04:34:27.167Z,4.30
2022-09-05T04:37:03.745Z,4.30
2022-09-05T04:39:33.260Z,3.83
2022-09-05T04:42:15.280Z,4.10
2022-09-05T04:44:48.037Z,4.50
2022-09-05T04:47:21.445Z,4.38
2022-09-05T04:49:58.058Z,4.07
2022-09-05T04:52:52.475Z,4.55
2022-09-05T04:55:23.303Z,4.23
2022-09-05T04:57:56.013Z,4.25
2022-09-05T05:05:58.532Z,4.20
2022-09-05T05:06:17.754Z,4.05
2022-09-05T05:06:44.072Z,4.22
2022-09-05T05:09:03.621Z,4.50
2022-09-05T05:18:01.916Z,4.00
2022-09-05T05:18:11.815Z,4.45
2022-09-05T05:18:16.391Z,4.32
2022-09-05T05:20:42.256Z,4.40
2022-09-05T05:23:16.514Z,4.20
2022-09-05T05:25:51.493Z,4.18
2022-09-05T05:28:27.787Z,4.00
2022-09-05T05:31:01.260Z,4.18
2022-09-05T05:33:33.584Z,4.50
2022-09-05T05:36:06.889Z,4.15
2022-09-05T05:38:44.243Z,4.00
2022-09-05T05:41:20.872Z,4.25
2022-09-05T05:43:50.542Z,4.13
2022-09-05T05:46:32.209Z,4.18
2022-09-05T05:49:38.993Z,4.50
2022-09-05T05:52:32.610Z,4.45
2022-09-05T05:55:09.680Z,4.28
2022-09-05T05:58:07.995Z,4.45
2022-09-05T06:00:58.781Z,4.73
2022-09-05T06:04:00.979Z,4.97
2022-09-05T06:06:42.914Z,5.13
2022-09-05T06:14:52.372Z,4.97
2022-09-05T06:14:59.829Z,5.75
2022-09-05T06:16:26.001Z,5.55
2022-09-05T06:19:31.812Z,5.47
2022-09-05T06:22:43.219Z,5.95
2022-09-05T06:25:53.187Z,6.00
2022-09-05T06:28:32.942Z,5.63
2022-09-05T06:31:30.918Z,5.93
2022-09-05T06:34:26.613Z,5.68
2022-09-05T06:37:06.177Z,5.50
2022-09-05T06:39:58.427Z,5.30
2022-09-05T06:42:43.617Z,5.90
2022-09-05T06:45:44.460Z,5.13
2022-09-05T06:48:45.888Z,5.53
2022-09-05T06:51:29.972Z,4.85
2022-09-05T06:54:16.419Z,5.20
2022-09-05T06:57:05.580Z,5.43
2022-09-05T07:00:17.605Z,5.57
2022-09-05T07:03:13.559Z,5.75
2022-09-05T07:05:45.658Z,5.50
2022-09-05T07:08:39.195Z,5.18
2022-09-05T07:11:16.083Z,5.32
2022-09-05T07:13:55.773Z,5.03
2022-09-05T07:16:38.165Z,4.70
2022-09-05T07:19:26.670Z,4.93
2022-09-05T07:22:44.499Z,4.30
2022-09-05T07:25:09.308Z,4.90
2022-09-05T07:27:49.873Z,4.30
2022-09-05T07:30:28.886Z,4.90
2022-09-05T07:32:59.693Z,4.50
2022-09-05T07:35:37.008Z,5.25
2022-09-05T07:38:16.028Z,4.90
2022-09-05T07:40:51.528Z,4.50
2022-09-05T07:43:23.768Z,4.30
2022-09-05T07:46:06.627Z,4.55
2022-09-05T07:48:38.995Z,3.90
2022-09-05T07:56:43.939Z,4.40
2022-09-05T07:56:54.032Z,4.07
2022-09-05T07:59:42.558Z,3.85
2022-09-05T08:02:13.730Z,4.03
2022-09-05T08:04:42.754Z,4.22
2022-09-05T08:07:49.271Z,4.35
2022-09-05T08:10:11.349Z,4.03
2022-09-05T08:13:34.184Z,4.40
2022-09-05T08:16:11.015Z,4.00
2022-09-05T08:18:36.737Z,4.25
2022-09-05T08:21:10.997Z,3.80
2022-09-05T08:23:55.943Z,3.65
2022-09-05T08:26:32.539Z,3.50
2022-09-05T08:29:09.221Z,3.33
2022-09-05T08:31:42.118Z,3.50
2022-09-05T08:34:15.950Z,3.28
2022-09-05T08:36:47.252Z,3.30
2022-09-05T08:39:20.683Z,2.95
2022-09-05T08:42:08.415Z,3.07
2022-09-05T08:46:40.242Z,2.72
2022-09-05T08:47:45.115Z,3.03
2022-09-05T08:50:39.438Z,2.95
2022-09-05T08:53:18.617Z,2.70
2022-09-05T08:56:10.170Z,2.67
2022-09-05T08:59:27.116Z,3.00
2022-09-05T09:02:17.418Z,3.10
2022-09-05T09:05:02.364Z,2.80
2022-09-05T09:07:47.418Z,3.42
2022-09-05T09:10:28.910Z,3.20
2022-09-05T09:13:12.463Z,3.40
2022-09-05T09:15:46.449Z,3.20
2022-09-05T09:18:16.804Z,2.97
2022-09-05T09:20:52.711Z,2.85
2022-09-05T09:23:40.463Z,2.87
2022-09-05T09:26:16.064Z,2.90
2022-09-05T09:28:52.155Z,2.50
2022-09-05T09:31:36.229Z,2.65
2022-09-05T09:34:38.277Z,2.70
2022-09-05T09:37:53.430Z,2.42
2022-09-05T09:41:00.900Z,2.30
2022-09-05T09:43:52.823Z,2.60
2022-09-05T09:46:39.031Z,2.20
2022-09-05T09:49:31.701Z,2.33
2022-09-05T09:52:25.051Z,2.15
2022-09-05T09:55:38.968Z,2.20
2022-09-05T09:58:24.980Z,2.50
2022-09-05T10:01:02.083Z,2.45
2022-09-05T10:10:04.452Z,2.45
2022-09-05T10:10:56.273Z,2.10
2022-09-05T10:11:22.496Z,2.33
2022-09-05T10:13:58.591Z,2.50
2022-09-05T10:17:02.801Z,2.45
2022-09-05T10:20:10.646Z,2.30
2022-09-05T10:23:02.639Z,2.30
2022-09-05T10:25:48.488Z,2.13
2022-09-05T10:28:27.858Z,2.22
2022-09-05T10:32:58.064Z,2.20
2022-09-05T10:35:12.999Z,1.90
2022-09-05T10:36:59.211Z,2.10
2022-09-05T10:39:29.980Z,1.90
2022-09-05T10:42:04.706Z,2.33
2022-09-05T10:44:40.512Z,2.20
2022-09-05T10:47:20.202Z,2.33
2022-09-05T10:49:52.399Z,2.25
2022-09-05T10:52:33.566Z,2.50
2022-09-05T10:55:22.089Z,2.20
2022-09-05T10:58:00.865Z,2.30
2022-09-05T11:02:19.235Z,2.20
2022-09-05T11:03:46.574Z,2.28
2022-09-05T11:06:16.842Z,2.45
2022-09-05T11:09:01.472Z,2.60
2022-09-05T11:11:35.438Z,2.13
2022-09-05T11:14:26.971Z,2.20
2022-09-05T11:17:02.202Z,2.33
2022-09-05T11:19:40.266Z,2.38
2022-09-05T11:22:24.079Z,2.22
2022-09-05T11:24:58.820Z,2.20
2022-09-05T11:27:33.502Z,2.40
2022-09-05T11:30:06.698Z,2.27
2022-09-05T11:39:49.225Z,2.25
2022-09-05T11:39:58.916Z,2.10
2022-09-05T11:40:09.883Z,2.30
2022-09-05T11:42:27.787Z,2.40
2022-09-05T11:45:22.960Z,2.20
2022-09-05T11:48:23.725Z,2.25
2022-09-05T11:51:33.664Z,2.30
2022-09-05T11:54:30.014Z,2.13
2022-09-05T11:57:33.948Z,2.22
2022-09-05T12:03:59.605Z,2.40
2022-09-05T12:06:49.585Z,2.25
2022-09-05T12:09:31.215Z,2.33
2022-09-05T12:12:18.662Z,2.33
2022-09-05T12:15:19.482Z,2.20
2022-09-05T12:18:00.482Z,2.50
2022-09-05T12:20:43.187Z,2.15
2022-09-05T12:23:31.226Z,2.10
2022-09-05T12:27:38.514Z,2.20
2022-09-05T12:29:34.775Z,2.30
2022-09-05T12:33:33.857Z,2.20
2022-09-05T12:36:08.505Z,2.40
2022-09-05T12:40:56.857Z,2.35
2022-09-05T12:41:35.166Z,2.30
2022-09-05T12:41:37.771Z,2.20
2022-09-05T12:44:39.833Z,2.22
2022-09-05T12:46:26.938Z,2.57
2022-09-05T12:49:07.027Z,2.33
2022-09-05T12:51:46.593Z,2.20
2022-09-05T12:54:34.237Z,1.92
2022-09-05T12:58:50.887Z,2.28
2022-09-05T13:02:58.987Z,2.40
2022-09-05T13:03:11.798Z,2.28
2022-09-05T13:05:52.701Z,2.58
2022-09-05T13:08:23.062Z,2.38
2022-09-05T13:14:47.216Z,2.50
2022-09-05T13:14:59.903Z,2.40
2022-09-05T13:16:39.614Z,2.38
2022-09-05T13:19:23.144Z,2.58
2022-09-05T13:21:56.085Z,2.10
2022-09-05T13:24:30.626Z,2.10
2022-09-05T13:27:05.580Z,2.47
2022-09-05T13:29:44.218Z,2.10
2022-09-05T13:38:03.159Z,2.30
2022-09-05T13:38:10.026Z,2.25
2022-09-05T13:41:06.300Z,2.20
2022-09-05T13:44:00.247Z,2.43
2022-09-05T13:46:57.858Z,2.10
2022-09-05T13:49:32.313Z,2.10
2022-09-05T13:52:15.963Z,2.30
2022-09-05T13:54:51.056Z,2.05
2022-09-05T13:57:31.662Z,2.20
2022-09-05T14:00:41.201Z,2.45
2022-09-05T14:03:40.686Z,2.35
2022-09-05T14:06:45.873Z,2.17
2022-09-05T14:09:35.776Z,2.13
2022-09-05T14:12:12.466Z,2.20
2022-09-05T14:17:55.528Z,2.47
2022-09-05T14:20:49.342Z,2.50
2022-09-05T14:23:18.907Z,2.20
2022-09-05T14:25:52.326Z,2.20
2022-09-05T14:28:26.621Z,2.13
2022-09-05T14:35:02.027Z,2.33
2022-09-05T14:37:40.300Z,2.20
2022-09-05T14:37:52.440Z,2.20
2022-09-05T14:40:59.775Z,2.10
2022-09-05T14:44:08.190Z,2.10
2022-09-05T14:47:02.208Z,2.20
2022-09-05T14:49:45.539Z,2.10
2022-09-05T14:52:23.394Z,2.50
2022-09-05T15:02:42.131Z,2.30
2022-09-05T15:02:44.637Z,2.08
2022-09-05T15:06:38.956Z,2.13
2022-09-05T15:12:17.409Z,2.20
2022-09-05T15:12:21.215Z,2.10
2022-09-05T15:15:13.406Z,2.17
2022-09-05T15:17:45.824Z,2.10
2022-09-05T15:20:28.972Z,1.98
2022-09-05T15:22:57.635Z,2.20
2022-09-05T15:25:27.450Z,2.00
2022-09-05T15:27:56.359Z,1.92
2022-09-05T15:30:35.167Z,2.10
2022-09-05T15:33:26.351Z,1.92
2022-09-05T15:35:56.557Z,2.17
2022-09-05T15:38:28.353Z,2.30
2022-09-05T15:41:17.205Z,2.25
2022-09-05T15:43:59.250Z,2.40
2022-09-05T15:46:45.991Z,2.20
2022-09-05T15:49:28.122Z,2.00
2022-09-05T15:51:59.830Z,2.10
2022-09-05T15:54:38.489Z,1.98
2022-09-05T15:57:17.727Z,2.08
2022-09-05T15:59:49.224Z,2.00
2022-09-05T16:02:20.596Z,2.45
2022-09-05T16:10:31.242Z,5.07
2022-09-05T16:10:34.320Z,2.10
2022-09-05T16:11:04.499Z,2.33
2022-09-05T16:13:36.754Z,3.35
2022-09-05T16:23:14.032Z,2.13
2022-09-05T16:23:23.854Z,2.17
2022-09-05T16:23:31.435Z,2.47
2022-09-05T16:25:01.586Z,2.08
2022-09-05T16:27:50.202Z,2.00
2022-09-05T16:30:27.180Z,2.50
2022-09-05T16:33:00.255Z,2.35
2022-09-05T16:35:30.222Z,2.20
2022-09-05T16:38:10.301Z,2.38
2022-09-05T16:40:42.766Z,2.17
2022-09-05T16:43:16.726Z,2.00
2022-09-05T16:45:50.976Z,2.50
2022-09-05T16:48:37.335Z,1.92
2022-09-05T16:51:15.344Z,2.20
2022-09-05T16:53:58.618Z,2.43
2022-09-05T16:56:34.714Z,2.47
2022-09-05T16:59:05.130Z,2.08
2022-09-05T17:01:56.227Z,2.40
2022-09-05T17:05:04.111Z,2.50
2022-09-05T17:07:51.865Z,2.20
2022-09-05T17:10:24.245Z,2.15
2022-09-05T17:12:54.474Z,2.30
2022-09-05T17:15:26.069Z,2.78
2022-09-05T17:18:21.874Z,2.40
2022-09-05T17:20:50.690Z,2.30
2022-09-05T17:26:40.460Z,2.33
2022-09-05T17:29:26.606Z,2.55
2022-09-05T17:29:45.685Z,2.40
2022-09-05T17:32:01.676Z,2.42
2022-09-05T17:34:49.476Z,2.40
2022-09-05T17:37:39.287Z,2.53
2022-09-05T17:40:27.989Z,2.63
2022-09-05T17:43:01.363Z,2.67
2022-09-05T17:45:44.778Z,2.78
2022-09-05T17:48:14.874Z,2.30
2022-09-05T17:50:53.922Z,2.50
2022-09-05T17:53:26.536Z,2.60
2022-09-05T17:56:27.466Z,2.60
2022-09-05T17:59:07.259Z,2.80
2022-09-05T18:01:36.798Z,2.80
2022-09-05T18:04:16.734Z,2.92
2022-09-05T18:10:14.801Z,3.05
2022-09-05T18:13:31.735Z,3.20
2022-09-05T18:16:11.138Z,3.15
2022-09-05T18:19:28.052Z,3.43
2022-09-05T18:21:48.275Z,3.42
2022-09-05T18:27:43.819Z,3.50
2022-09-05T18:30:28.122Z,3.67
2022-09-05T18:33:54.501Z,3.75
2022-09-05T18:36:35.774Z,3.80
2022-09-05T18:39:46.272Z,3.47
2022-09-05T18:42:25.971Z,3.60
2022-09-05T18:45:15.035Z,3.72
2022-09-05T18:47:52.622Z,3.72
2022-09-05T18:50:27.951Z,3.70
2022-09-05T18:53:10.572Z,4.22
2022-09-05T18:56:09.988Z,3.70
2022-09-05T18:58:51.685Z,4.00
2022-09-05T19:01:36.680Z,4.00
2022-09-05T19:04:09.622Z,4.22
2022-09-05T19:06:59.871Z,4.10
2022-09-05T19:09:39.356Z,4.50
2022-09-05T19:12:18.282Z,4.25
2022-09-05T19:15:07.007Z,4.45
2022-09-05T19:17:46.963Z,4.47
2022-09-05T19:20:32.222Z,5.15
2022-09-05T19:23:11.031Z,4.32
2022-09-05T19:25:45.314Z,4.60
2022-09-05T19:36:46.370Z,4.25
2022-09-05T19:37:15.105Z,4.65
2022-09-05T19:37:15.287Z,4.65
2022-09-05T19:37:29.279Z,4.40
2022-09-05T19:45:50.552Z,4.20
2022-09-05T19:47:29.536Z,4.55
2022-09-05T19:47:35.037Z,4.50
2022-09-05T19:50:58.542Z,4.70
2022-09-05T19:53:26.656Z,4.57
2022-09-05T19:55:54.886Z,4.60
2022-09-05T19:58:25.414Z,4.68
2022-09-05T20:01:03.215Z,4.63
2022-09-05T20:03:38.804Z,4.80
2022-09-05T20:06:29.756Z,4.40
2022-09-05T20:09:10.401Z,4.80
2022-09-05T20:11:45.483Z,4.70
2022-09-05T20:14:22.227Z,5.07
2022-09-05T20:16:51.630Z,4.82
2022-09-05T20:19:33.375Z,5.07
2022-09-05T20:22:05.528Z,5.13
2022-09-05T20:24:53.773Z,4.90
2022-09-05T20:27:27.489Z,5.13
2022-09-05T20:30:00.409Z,5.30
2022-09-05T20:32:39.454Z,5.50
2022-09-05T20:39:59.565Z,5.57
2022-09-05T20:43:20.492Z,5.38
2022-09-05T20:43:31.194Z,5.47
2022-09-05T20:43:52.404Z,5.10
2022-09-05T20:48:21.942Z,6.03
2022-09-05T20:54:17.615Z,5.90
2022-09-05T20:54:20.749Z,5.80
2022-09-05T20:55:37.841Z,5.70
2022-09-05T20:58:09.710Z,5.85
2022-09-05T21:00:39.605Z,6.20
2022-09-05T21:03:12.472Z,5.93
2022-09-05T21:05:46.413Z,6.20
2022-09-05T21:08:16.656Z,5.73
2022-09-05T21:10:54.759Z,6.30
2022-09-05T21:13:26.950Z,6.13
2022-09-05T21:15:55.353Z,6.03
2022-09-05T21:18:31.415Z,6.28
2022-09-05T21:21:05.403Z,5.88
2022-09-05T21:24:08.974Z,6.18
2022-09-05T21:26:45.085Z,5.50
2022-09-05T21:29:18.246Z,6.35
2022-09-05T21:31:54.923Z,6.88
2022-09-05T21:34:34.310Z,7.35
2022-09-05T21:37:07.644Z,6.72
2022-09-05T21:39:56.931Z,7.18
2022-09-05T21:44:04.426Z,6.72
2022-09-05T21:47:40.082Z,6.88
2022-09-05T21:48:07.715Z,6.60
2022-09-05T21:50:41.011Z,6.65
2022-09-05T21:56:42.920Z,6.65
2022-09-05T21:59:19.730Z,6.65
2022-09-05T21:59:29.830Z,6.70
2022-09-05T22:01:54.012Z,6.20
2022-09-05T22:04:22.534Z,6.68
2022-09-05T22:06:54.000Z,5.82
2022-09-05T22:09:23.538Z,6.45
2022-09-05T22:11:52.323Z,6.32
2022-09-05T22:14:22.619Z,6.32
2022-09-05T22:16:52.974Z,6.00
2022-09-05T22:19:37.100Z,6.50
2022-09-05T22:22:16.225Z,6.13
2022-09-05T22:25:01.867Z,5.95
2022-09-05T22:27:32.266Z,6.75
2022-09-05T22:30:00.474Z,6.33
2022-09-05T22:32:35.085Z,6.60
2022-09-05T22:35:27.674Z,6.70
2022-09-05T22:38:00.943Z,6.55
2022-09-05T22:40:30.206Z,6.43
2022-09-05T22:42:58.992Z,5.80
2022-09-05T22:45:27.176Z,6.30
2022-09-05T22:47:55.372Z,6.20
2022-09-05T22:50:24.369Z,6.30
2022-09-05T22:52:53.904Z,6.20
2022-09-05T22:55:21.793Z,6.35
2022-09-05T22:57:49.883Z,6.30
2022-09-05T23:00:17.847Z,6.40
2022-09-05T23:02:50.226Z,6.53
2022-09-05T23:05:20.274Z,6.22
2022-09-05T23:07:48.093Z,6.70
2022-09-05T23:10:17.859Z,6.60
2022-09-05T23:12:46.205Z,6.32
2022-09-05T23:15:14.194Z,6.20
2022-09-05T23:17:42.317Z,6.87
2022-09-05T23:20:11.491Z,6.35
2022-09-05T23:22:39.874Z,6.40
2022-09-05T23:25:08.394Z,6.03
2022-09-05T23:27:38.790Z,6.57
2022-09-05T23:30:09.999Z,5.97
2022-09-05T23:32:38.114Z,5.93
2022-09-05T23:35:07.247Z,6.05
2022-09-05T23:37:35.073Z,6.00
2022-09-05T23:40:03.143Z,6.13
2022-09-05T23:42:31.049Z,6.68
2022-09-05T23:45:00.201Z,6.30
2022-09-05T23:47:29.693Z,6.25
2022-09-05T23:49:57.749Z,6.35
2022-09-05T23:52:25.559Z,6.53
2022-09-05T23:54:53.379Z,6.53
2022-09-05T23:57:23.054Z,6.97
2022-09-05T23:59:52.412Z,7.13
